Time;durP1;ratioP1;P1;durP2;ratioP2;P2;SDS_P1;SDS_P2;PMS_P1;PMS_P2;Temp;Humidity;BMP_temperature;BMP_pressure;BME280_temperature;BME280_humidity;BME280_pressure;Samples;Min_cycle;Max_cycle;Signal;HPM_P1;HPM_P2
2022/10/31 00:01:19;;;;;;;33.88;12.63;;;11.50;99.90;;;;;;5053974;28;20087;-72
2022/10/31 00:03:45;;;;;;;31.55;12.63;;;11.50;99.90;;;;;;5072557;28;20124;-71
2022/10/31 00:06:11;;;;;;;32.55;12.38;;;11.40;99.90;;;;;;5071172;28;20049;-72
2022/10/31 00:08:37;;;;;;;33.55;13.00;;;11.40;99.90;;;;;;5054556;28;20072;-72
2022/10/31 00:11:03;;;;;;;29.80;11.63;;;11.30;99.90;;;;;;5072466;28;20048;-72
2022/10/31 00:13:29;;;;;;;32.63;12.82;;;11.30;99.90;;;;;;5055259;28;20040;-72
2022/10/31 00:15:54;;;;;;;30.75;11.73;;;11.30;99.90;;;;;;5072319;28;20369;-71
2022/10/31 00:18:20;;;;;;;32.33;11.80;;;11.20;99.90;;;;;;5054363;28;20044;-72
2022/10/31 00:20:46;;;;;;;28.15;12.18;;;11.10;99.90;;;;;;5071148;28;20080;-72
2022/10/31 00:23:11;;;;;;;29.80;11.77;;;11.10;99.90;;;;;;5071932;28;20424;-71
2022/10/31 00:25:39;;;;;;;25.98;11.60;;;11.10;99.90;;;;;;5071716;28;20048;-72
2022/10/31 00:28:07;;;;;;;33.22;12.13;;;11.10;99.90;;;;;;5071021;28;20124;-71
2022/10/31 00:30:33;;;;;;;31.02;12.52;;;11.00;99.90;;;;;;5072205;28;20067;-72
2022/10/31 00:32:59;;;;;;;30.70;12.50;;;11.10;99.90;;;;;;5072154;28;20207;-71
2022/10/31 00:35:24;;;;;;;29.92;12.30;;;11.10;99.90;;;;;;5071689;28;20550;-72
2022/10/31 00:37:51;;;;;;;28.30;12.77;;;11.10;99.90;;;;;;5071274;28;20213;-72
2022/10/31 00:40:17;;;;;;;36.85;14.23;;;11.10;99.90;;;;;;5054020;28;20052;-72
2022/10/31 00:42:43;;;;;;;33.58;13.35;;;11.10;99.90;;;;;;5071060;28;20041;-73
2022/10/31 00:45:10;;;;;;;33.80;14.05;;;11.10;99.90;;;;;;5070984;28;20434;-73
2022/10/31 00:47:36;;;;;;;37.33;14.45;;;11.10;99.90;;;;;;5076303;28;20052;-72
2022/10/31 00:50:03;;;;;;;32.67;13.53;;;11.10;99.90;;;;;;5075976;28;20048;-72
2022/10/31 00:52:29;;;;;;;32.70;13.70;;;11.10;99.90;;;;;;5075989;28;20048;-72
2022/10/31 00:54:55;;;;;;;44.92;15.40;;;11.20;99.90;;;;;;5075946;28;20056;-72
2022/10/31 00:57:20;;;;;;;40.60;14.48;;;11.20;99.90;;;;;;5076024;28;20048;-72
2022/10/31 00:59:46;;;;;;;41.15;14.93;;;11.10;99.90;;;;;;5075821;28;20074;-72
2022/10/31 01:02:12;;;;;;;40.28;15.35;;;11.10;99.90;;;;;;5074871;28;20427;-72
2022/10/31 01:04:37;;;;;;;42.50;15.10;;;11.10;99.90;;;;;;5074598;28;20045;-73
2022/10/31 01:07:03;;;;;;;44.15;15.75;;;11.10;99.90;;;;;;5075675;28;20048;-74
2022/10/31 01:09:29;;;;;;;41.22;15.88;;;11.10;99.90;;;;;;5075511;28;20124;-73
2022/10/31 01:11:54;;;;;;;34.85;14.52;;;11.10;99.90;;;;;;5075769;28;20049;-73
2022/10/31 01:14:20;;;;;;;34.88;14.40;;;11.10;99.90;;;;;;5075401;28;20437;-72
2022/10/31 01:16:46;;;;;;;44.53;15.50;;;11.10;99.90;;;;;;5075439;28;20130;-71
2022/10/31 01:19:11;;;;;;;38.58;14.77;;;11.10;99.90;;;;;;5074324;28;20127;-70
2022/10/31 01:21:37;;;;;;;35.03;14.77;;;11.00;99.90;;;;;;5074795;28;20045;-72
2022/10/31 01:24:03;;;;;;;41.70;15.27;;;11.10;99.90;;;;;;5057620;28;20044;-72
2022/10/31 01:26:31;;;;;;;35.72;15.00;;;11.00;99.90;;;;;;5075871;28;20119;-73
2022/10/31 01:29:07;;;;;;;32.95;14.48;;;11.00;99.90;;;;;;5074436;28;20485;-71
2022/10/31 01:31:36;;;;;;;39.15;15.00;;;11.10;99.90;;;;;;5073687;28;20091;-75
2022/10/31 01:34:02;;;;;;;32.33;14.00;;;11.10;99.90;;;;;;5074575;28;20044;-72
2022/10/31 01:36:37;;;;;;;29.88;13.65;;;11.00;99.90;;;;;;5056131;28;20189;-72
2022/10/31 01:39:10;;;;;;;37.30;14.00;;;11.00;99.90;;;;;;5073881;28;20067;-72
2022/10/31 01:41:38;;;;;;;33.28;13.68;;;11.00;99.90;;;;;;5074633;28;20080;-71
2022/10/31 01:44:13;;;;;;;37.08;14.50;;;11.00;99.90;;;;;;5073954;28;20059;-71
2022/10/31 01:46:44;;;;;;;32.97;13.55;;;11.00;99.90;;;;;;5074686;28;20437;-71
2022/10/31 01:49:36;;;;;;;34.90;13.18;;;10.90;99.90;;;;;;5074305;28;20048;-71
2022/10/31 01:52:18;;;;;;;32.92;12.45;;;10.80;99.90;;;;;;5064113;28;20056;-71
2022/10/31 01:55:07;;;;;;;29.77;12.70;;;10.80;99.90;;;;;;5074225;28;20097;-71
2022/10/31 01:57:36;;;;;;;30.52;12.60;;;10.80;99.90;;;;;;5062560;28;20053;-71
2022/10/31 02:00:07;;;;;;;33.20;12.57;;;10.70;99.90;;;;;;5074274;28;20041;-71
2022/10/31 02:02:32;;;;;;;34.55;12.88;;;10.60;99.90;;;;;;5072884;28;20385;-71
2022/10/31 02:05:01;;;;;;;40.45;14.10;;;10.60;99.90;;;;;;5074090;28;20041;-72
2022/10/31 02:07:33;;;;;;;33.20;13.35;;;10.60;99.90;;;;;;5073007;28;20395;-75
2022/10/31 02:10:01;;;;;;;38.53;13.18;;;10.60;99.90;;;;;;5074041;28;20051;-72
2022/10/31 02:12:29;;;;;;;33.60;13.70;;;10.60;99.90;;;;;;5074004;28;20048;-75
2022/10/31 02:14:55;;;;;;;38.30;13.95;;;10.50;99.90;;;;;;5073131;28;20048;-71
2022/10/31 02:17:21;;;;;;;34.05;13.45;;;10.50;99.90;;;;;;5055890;28;20063;-71
2022/10/31 02:20:03;;;;;;;27.60;12.25;;;10.50;99.90;;;;;;5056486;28;20094;-71
2022/10/31 02:22:59;;;;;;;34.45;12.52;;;10.50;99.90;;;;;;5072385;28;20045;-75
2022/10/31 02:26:02;;;;;;;28.05;12.18;;;10.50;99.90;;;;;;5074362;28;20156;-71
2022/10/31 02:28:39;;;;;;;26.48;12.15;;;10.50;99.90;;;;;;5055996;28;20095;-73
2022/10/31 02:31:23;;;;;;;31.58;12.07;;;10.40;99.90;;;;;;5074202;28;20337;-71
2022/10/31 02:33:57;;;;;;;30.95;12.27;;;10.40;99.90;;;;;;5072813;28;20051;-71
2022/10/31 02:36:48;;;;;;;30.13;11.50;;;10.40;99.90;;;;;;5073782;28;20057;-71
2022/10/31 02:39:34;;;;;;;36.33;13.27;;;10.40;99.90;;;;;;5071598;28;20041;-71
2022/10/31 02:42:12;;;;;;;31.75;12.88;;;10.40;99.90;;;;;;5074424;28;20076;-71
2022/10/31 02:45:01;;;;;;;26.55;12.02;;;10.40;99.90;;;;;;5056036;28;20056;-70
2022/10/31 02:47:29;;;;;;;32.10;12.45;;;10.30;99.90;;;;;;5074016;28;20057;-71
2022/10/31 02:50:04;;;;;;;25.20;12.15;;;10.30;99.90;;;;;;5073836;28;20048;-71
2022/10/31 02:52:32;;;;;;;29.88;12.77;;;10.30;99.90;;;;;;5073163;28;20090;-71
2022/10/31 02:54:58;;;;;;;34.33;13.23;;;10.20;99.90;;;;;;5073341;28;20096;-72
2022/10/31 02:57:33;;;;;;;27.90;13.20;;;10.20;99.90;;;;;;5073155;28;20088;-71
2022/10/31 03:00:07;;;;;;;28.15;11.68;;;10.20;99.90;;;;;;5072931;28;20040;-72
2022/10/31 03:02:42;;;;;;;30.73;12.48;;;10.20;99.90;;;;;;5073279;28;20052;-76
2022/10/31 03:05:25;;;;;;;34.45;13.35;;;10.20;99.90;;;;;;5073558;28;20091;-72
2022/10/31 03:08:11;;;;;;;29.50;12.50;;;10.10;99.90;;;;;;5041775;28;20508;-73
2022/10/31 03:10:43;;;;;;;30.37;13.23;;;10.10;99.90;;;;;;5073107;28;20036;-73
2022/10/31 03:13:20;;;;;;;29.08;13.23;;;10.00;99.90;;;;;;5072308;28;20052;-71
2022/10/31 03:15:50;;;;;;;31.88;12.57;;;10.00;99.90;;;;;;5072368;28;20052;-72
2022/10/31 03:18:29;;;;;;;32.38;13.18;;;9.90;99.90;;;;;;5071736;28;20055;-71
2022/10/31 03:21:07;;;;;;;36.90;13.18;;;9.90;99.90;;;;;;5071399;28;20080;-71
2022/10/31 03:23:35;;;;;;;28.08;12.98;;;9.90;99.90;;;;;;5071460;28;20074;-71
2022/10/31 03:26:05;;;;;;;34.28;13.77;;;9.90;99.90;;;;;;5055408;28;20518;-71
2022/10/31 03:28:35;;;;;;;30.13;13.02;;;9.90;99.90;;;;;;5054924;28;20052;-71
2022/10/31 03:31:04;;;;;;;31.08;12.65;;;9.90;99.90;;;;;;5055078;28;20087;-71
2022/10/31 03:33:40;;;;;;;31.42;13.73;;;9.80;99.90;;;;;;5071362;28;20044;-71
2022/10/31 03:36:10;;;;;;;36.42;12.73;;;9.80;99.90;;;;;;5072745;28;20102;-71
2022/10/31 03:38:36;;;;;;;31.08;13.30;;;9.80;99.90;;;;;;5073201;28;20053;-72
2022/10/31 03:41:05;;;;;;;32.20;13.88;;;9.80;99.90;;;;;;5072932;28;20081;-71
2022/10/31 03:43:36;;;;;;;28.73;13.32;;;9.70;99.90;;;;;;5071259;28;20442;-71
2022/10/31 03:46:02;;;;;;;28.38;12.88;;;9.70;99.90;;;;;;5073333;28;20095;-71
2022/10/31 03:48:28;;;;;;;32.95;14.27;;;9.70;99.90;;;;;;5072540;28;20045;-71
2022/10/31 03:50:57;;;;;;;31.63;13.25;;;9.70;99.90;;;;;;5072364;28;20115;-71
2022/10/31 03:53:38;;;;;;;28.85;12.77;;;9.70;99.90;;;;;;5071245;28;20515;-73
2022/10/31 03:56:18;;;;;;;38.13;14.02;;;9.70;99.90;;;;;;5072482;28;20131;-71
2022/10/31 03:58:58;;;;;;;33.03;13.52;;;9.70;99.90;;;;;;5072947;28;20064;-74
2022/10/31 04:01:26;;;;;;;31.42;13.65;;;9.70;99.90;;;;;;5072632;28;20040;-70
2022/10/31 04:03:52;;;;;;;34.33;13.88;;;9.70;99.90;;;;;;5075350;28;20441;-71
2022/10/31 04:06:21;;;;;;;37.53;13.65;;;9.60;99.90;;;;;;5074919;28;20091;-70
2022/10/31 04:08:55;;;;;;;31.58;14.10;;;9.60;99.90;;;;;;5073619;28;20507;-70
2022/10/31 04:11:27;;;;;;;30.95;13.65;;;9.60;99.90;;;;;;5073499;28;20052;-71
2022/10/31 04:13:54;;;;;;;31.10;13.55;;;9.60;99.90;;;;;;5075850;28;20127;-71
2022/10/31 04:16:21;;;;;;;31.88;14.00;;;9.60;99.90;;;;;;5059561;28;20064;-70
2022/10/31 04:18:47;;;;;;;;;;;9.50;99.90;;;;;;5060263;28;20056;-74
2022/10/31 04:21:12;;;;;;;34.90;13.23;;;9.50;99.90;;;;;;5060949;28;19920;-71
2022/10/31 04:23:38;;;;;;;36.58;13.55;;;9.50;99.90;;;;;;5076478;28;20048;-73
2022/10/31 04:26:04;;;;;;;33.92;15.15;;;9.40;99.90;;;;;;5076003;28;20060;-71
2022/10/31 04:28:30;;;;;;;38.60;15.25;;;9.40;99.90;;;;;;5075183;28;20065;-72
2022/10/31 04:30:55;;;;;;;34.35;14.02;;;9.40;99.90;;;;;;5074740;28;20045;-73
2022/10/31 04:33:21;;;;;;;34.70;14.35;;;9.40;99.90;;;;;;5074649;28;20480;-71
2022/10/31 04:35:47;;;;;;;35.85;14.27;;;9.40;99.90;;;;;;5076180;28;20056;-71
2022/10/31 04:38:13;;;;;;;34.65;15.13;;;9.40;99.90;;;;;;5074850;28;20060;-71
2022/10/31 04:40:39;;;;;;;35.55;14.23;;;9.30;99.90;;;;;;5076519;28;20530;-72
2022/10/31 04:43:04;;;;;;;35.58;15.13;;;9.40;99.90;;;;;;5074551;28;20054;-71
2022/10/31 04:45:30;;;;;;;42.70;15.82;;;9.30;99.90;;;;;;5043710;28;20082;-70
2022/10/31 04:47:56;;;;;;;41.92;14.73;;;9.30;99.90;;;;;;5075002;28;20047;-71
2022/10/31 04:50:21;;;;;;;33.60;14.18;;;9.30;99.90;;;;;;5074336;28;20045;-71
2022/10/31 04:52:47;;;;;;;32.88;14.60;;;9.30;99.90;;;;;;5075699;28;20064;-72
2022/10/31 04:55:14;;;;;;;33.83;13.55;;;9.20;99.90;;;;;;5074630;28;20040;-72
2022/10/31 04:57:48;;;;;;;28.53;13.73;;;9.20;99.90;;;;;;5074130;28;20125;-71
2022/10/31 05:00:16;;;;;;;33.90;13.85;;;9.20;99.90;;;;;;5074145;28;20051;-71
2022/10/31 05:02:46;;;;;;;37.20;14.02;;;9.10;99.90;;;;;;5074007;28;20487;-71
2022/10/31 05:05:13;;;;;;;34.67;14.00;;;9.10;99.90;;;;;;5075550;28;20064;-71
2022/10/31 05:07:44;;;;;;;33.60;14.30;;;9.20;99.90;;;;;;5075427;28;20137;-71
2022/10/31 05:10:12;;;;;;;33.75;14.02;;;9.10;99.90;;;;;;5075448;28;20044;-72
2022/10/31 05:12:38;;;;;;;42.00;14.68;;;9.10;99.90;;;;;;5075535;28;20098;-72
2022/10/31 05:15:05;;;;;;;35.53;14.73;;;9.10;99.90;;;;;;5057952;28;20040;-72
2022/10/31 05:17:31;;;;;;;;;;;9.00;99.90;;;;;;5074666;28;20055;-71
2022/10/31 05:19:58;;;;;;;38.22;14.57;;;9.00;99.90;;;;;;5074954;28;19921;-72
2022/10/31 05:22:24;;;;;;;39.85;15.00;;;9.00;99.90;;;;;;5075373;28;20241;-70
2022/10/31 05:24:49;;;;;;;34.83;14.13;;;9.10;99.90;;;;;;5057625;28;20056;-72
2022/10/31 05:27:15;;;;;;;39.10;14.45;;;9.10;99.90;;;;;;5057503;28;20083;-70
2022/10/31 05:29:41;;;;;;;35.72;14.25;;;9.10;99.90;;;;;;5074079;28;20499;-71
2022/10/31 05:32:06;;;;;;;31.30;13.00;;;9.00;99.90;;;;;;5074684;28;20130;-71
2022/10/31 05:34:32;;;;;;;34.83;13.95;;;9.00;99.90;;;;;;5075333;28;20067;-71
2022/10/31 05:36:58;;;;;;;31.45;14.02;;;9.00;99.90;;;;;;5075653;28;20404;-73
2022/10/31 05:39:23;;;;;;;30.73;13.88;;;8.90;99.90;;;;;;5075923;28;20083;-71
2022/10/31 05:41:49;;;;;;;31.95;14.57;;;8.90;99.90;;;;;;5076097;28;20048;-71
2022/10/31 05:44:15;;;;;;;34.53;14.95;;;8.90;99.90;;;;;;5074778;28;20127;-70
2022/10/31 05:46:40;;;;;;;32.08;13.20;;;8.90;99.90;;;;;;5057681;28;20059;-72
2022/10/31 05:49:06;;;;;;;41.38;14.68;;;8.90;99.90;;;;;;5072490;28;20056;-70
2022/10/31 05:51:32;;;;;;;35.67;14.18;;;8.80;99.90;;;;;;5074496;28;20041;-70
2022/10/31 05:53:57;;;;;;;35.63;14.75;;;8.70;99.90;;;;;;5074307;28;20477;-73
2022/10/31 05:56:23;;;;;;;31.13;13.88;;;8.80;99.90;;;;;;5056439;28;20449;-71
2022/10/31 05:58:49;;;;;;;32.60;14.27;;;8.80;99.90;;;;;;5055883;28;20060;-71
2022/10/31 06:01:14;;;;;;;36.58;14.93;;;8.80;99.90;;;;;;5074623;28;20055;-70
2022/10/31 06:03:40;;;;;;;33.75;13.05;;;8.70;99.90;;;;;;5056348;28;20479;-70
2022/10/31 06:06:06;;;;;;;36.08;14.65;;;8.70;99.90;;;;;;5073989;28;20052;-71
2022/10/31 06:08:31;;;;;;;28.77;13.98;;;8.70;99.90;;;;;;5055333;28;20138;-70
2022/10/31 06:10:57;;;;;;;32.25;13.30;;;8.60;99.90;;;;;;5055843;28;20044;-70
2022/10/31 06:13:23;;;;;;;33.83;13.07;;;8.60;99.90;;;;;;5073342;28;20041;-71
2022/10/31 06:15:48;;;;;;;33.88;13.02;;;8.70;99.90;;;;;;5056042;28;20048;-70
2022/10/31 06:18:14;;;;;;;30.40;13.18;;;8.60;99.90;;;;;;5072495;28;20121;-71
2022/10/31 06:20:40;;;;;;;32.42;13.82;;;8.60;99.90;;;;;;5055695;28;20488;-71
2022/10/31 06:23:06;;;;;;;36.63;14.93;;;8.50;99.90;;;;;;5073974;28;20055;-71
2022/10/31 06:25:32;;;;;;;33.83;14.50;;;8.60;99.90;;;;;;5072158;28;20476;-71
2022/10/31 06:27:58;;;;;;;40.95;15.25;;;8.60;99.90;;;;;;5074562;28;20055;-70
2022/10/31 06:30:25;;;;;;;45.10;15.07;;;8.60;99.90;;;;;;5073107;28;20032;-71
2022/10/31 06:32:50;;;;;;;49.58;15.60;;;8.50;99.90;;;;;;5072275;28;20056;-70
2022/10/31 06:35:17;;;;;;;105.10;17.13;;;8.50;99.90;;;;;;5073340;28;20075;-70
2022/10/31 06:37:43;;;;;;;40.58;14.30;;;8.50;99.90;;;;;;5055885;28;20357;-70
2022/10/31 06:40:09;;;;;;;34.38;13.80;;;8.60;99.90;;;;;;5073655;28;20050;-71
2022/10/31 06:42:35;;;;;;;43.03;15.53;;;8.60;99.90;;;;;;5073037;28;20127;-71
2022/10/31 06:45:00;;;;;;;42.15;15.38;;;8.50;99.90;;;;;;5054609;28;20087;-71
2022/10/31 06:47:26;;;;;;;127.38;16.45;;;8.60;99.90;;;;;;5073464;28;20044;-71
2022/10/31 06:49:52;;;;;;;64.10;14.73;;;8.50;99.90;;;;;;5055102;28;20045;-71
2022/10/31 06:52:17;;;;;;;60.20;16.50;;;8.60;99.90;;;;;;5071475;28;20073;-71
2022/10/31 06:54:43;;;;;;;39.38;14.30;;;8.50;99.90;;;;;;5073648;28;20044;-71
2022/10/31 06:57:09;;;;;;;37.47;13.63;;;8.50;99.90;;;;;;5073435;28;20465;-74
2022/10/31 06:59:34;;;;;;;34.05;12.35;;;8.50;99.90;;;;;;5056888;28;20508;-71
2022/10/31 07:02:00;;;;;;;35.90;12.95;;;8.50;99.90;;;;;;5072591;28;20048;-71
2022/10/31 07:04:26;;;;;;;25.67;11.93;;;8.50;99.90;;;;;;5075614;28;20048;-71
2022/10/31 07:06:52;;;;;;;26.90;12.48;;;8.50;99.90;;;;;;5073319;28;20088;-72
2022/10/31 07:09:18;;;;;;;27.98;12.85;;;8.50;99.90;;;;;;5055054;28;20449;-72
2022/10/31 07:11:44;;;;;;;27.83;13.18;;;8.50;99.90;;;;;;5054798;28;20047;-71
2022/10/31 07:14:09;;;;;;;29.20;13.98;;;8.40;99.90;;;;;;5071536;28;20052;-73
2022/10/31 07:16:36;;;;;;;34.72;14.25;;;8.50;99.90;;;;;;5055163;28;20052;-71
2022/10/31 07:19:01;;;;;;;29.73;14.03;;;8.50;99.90;;;;;;5071219;28;20045;-72
2022/10/31 07:21:27;;;;;;;38.45;15.50;;;8.60;99.90;;;;;;5072114;28;20294;-71
2022/10/31 07:23:54;;;;;;;42.35;15.27;;;8.70;99.90;;;;;;5072755;28;20423;-73
2022/10/31 07:26:20;;;;;;;41.63;16.02;;;8.70;99.90;;;;;;5071880;28;20056;-70
2022/10/31 07:28:47;;;;;;;46.85;16.10;;;8.70;99.90;;;;;;5071083;28;20429;-71
2022/10/31 07:31:13;;;;;;;67.47;17.52;;;8.80;99.90;;;;;;5072327;28;20040;-74
2022/10/31 07:33:39;;;;;;;66.22;18.02;;;8.90;99.90;;;;;;5072285;28;20044;-70
2022/10/31 07:36:05;;;;;;;69.15;18.25;;;8.90;99.90;;;;;;5072077;28;20060;-72
2022/10/31 07:38:31;;;;;;;65.05;18.25;;;8.90;99.90;;;;;;5054181;28;20049;-70
2022/10/31 07:40:57;;;;;;;53.10;18.38;;;9.00;99.90;;;;;;5072639;28;20053;-70
2022/10/31 07:43:22;;;;;;;62.03;17.27;;;9.00;99.90;;;;;;5054945;28;20052;-71
2022/10/31 07:45:52;;;;;;;60.42;17.88;;;9.00;99.90;;;;;;5072707;28;20116;-71
2022/10/31 07:48:18;;;;;;;46.50;17.58;;;9.10;99.90;;;;;;5072643;28;20455;-71
2022/10/31 07:50:44;;;;;;;41.60;16.83;;;9.10;99.90;;;;;;5071033;28;20050;-70
2022/10/31 07:53:11;;;;;;;47.70;19.10;;;9.10;99.90;;;;;;5070704;28;20040;-70
2022/10/31 07:55:38;;;;;;;54.20;17.65;;;9.30;99.90;;;;;;5072232;28;20037;-71
2022/10/31 07:58:09;;;;;;;74.50;19.63;;;9.30;99.90;;;;;;5071676;28;20478;-71
2022/10/31 08:00:36;;;;;;;67.25;18.70;;;9.40;99.90;;;;;;5071964;28;20055;-71
2022/10/31 08:03:10;;;;;;;76.50;21.75;;;9.60;99.90;;;;;;5070243;28;20044;-72
2022/10/31 08:05:36;;;;;;;54.75;18.58;;;9.60;99.90;;;;;;5054276;28;20048;-70
2022/10/31 08:08:03;;;;;;;54.45;20.00;;;9.70;99.90;;;;;;5037529;28;20044;-70
2022/10/31 08:10:29;;;;;;;67.03;21.88;;;9.80;99.90;;;;;;5071266;28;20147;-70
2022/10/31 08:13:00;;;;;;;65.53;20.23;;;9.90;99.90;;;;;;5070531;28;20080;-70
2022/10/31 08:15:27;;;;;;;57.22;22.15;;;9.90;99.90;;;;;;5072226;28;20053;-70
2022/10/31 08:17:53;;;;;;;64.20;22.83;;;10.00;99.90;;;;;;5054751;28;20049;-70
2022/10/31 08:20:19;;;;;;;62.97;23.30;;;10.00;99.90;;;;;;5070557;28;20488;-71
2022/10/31 08:22:55;;;;;;;66.03;23.63;;;10.10;99.90;;;;;;5072248;28;20079;-70
2022/10/31 08:25:21;;;;;;;58.08;22.98;;;10.20;99.90;;;;;;5072404;28;20052;-73
2022/10/31 08:27:54;;;;;;;53.80;23.10;;;10.30;99.90;;;;;;5070959;28;20067;-69
2022/10/31 08:30:21;;;;;;;62.97;22.17;;;10.40;99.90;;;;;;5073002;28;20045;-71
2022/10/31 08:32:56;;;;;;;72.03;24.10;;;10.40;99.90;;;;;;5071961;28;20084;-71
2022/10/31 08:35:22;;;;;;;53.55;22.90;;;10.50;99.90;;;;;;5072463;28;20060;-72
2022/10/31 08:37:55;;;;;;;53.65;23.52;;;10.60;99.90;;;;;;5072124;28;20056;-70
2022/10/31 08:40:21;;;;;;;57.00;23.75;;;10.60;99.90;;;;;;5071801;28;20444;-70
2022/10/31 08:42:46;;;;;;;57.95;23.27;;;10.60;99.90;;;;;;5070486;28;20157;-74
2022/10/31 08:45:12;;;;;;;61.85;24.35;;;10.60;99.90;;;;;;5070378;28;20045;-71
2022/10/31 08:47:38;;;;;;;53.50;23.23;;;10.60;99.90;;;;;;5070835;28;20045;-72
2022/10/31 08:50:04;;;;;;;50.58;23.77;;;10.60;99.90;;;;;;5071063;28;20040;-69
2022/10/31 08:52:30;;;;;;;49.67;23.30;;;10.60;99.90;;;;;;5053377;28;20056;-70
2022/10/31 08:54:55;;;;;;;50.95;23.02;;;10.60;99.90;;;;;;5071490;28;20096;-72
2022/10/31 08:57:21;;;;;;;55.20;24.20;;;10.60;99.90;;;;;;5070339;28;20040;-68
2022/10/31 08:59:47;;;;;;;60.65;25.35;;;10.70;99.90;;;;;;5071534;28;20055;-69
2022/10/31 09:02:12;;;;;;;58.40;23.85;;;10.70;99.90;;;;;;5071368;28;20074;-69
2022/10/31 09:04:38;;;;;;;55.15;24.33;;;10.80;99.90;;;;;;5071046;28;20089;-71
2022/10/31 09:07:04;;;;;;;50.88;23.63;;;10.80;99.90;;;;;;5070999;28;20044;-70
2022/10/31 09:09:29;;;;;;;55.92;24.33;;;10.80;99.90;;;;;;5073834;28;20099;-71
2022/10/31 09:11:55;;;;;;;50.17;24.40;;;10.80;99.90;;;;;;5073543;28;20318;-70
2022/10/31 09:14:21;;;;;;;53.53;26.13;;;10.90;99.90;;;;;;5073464;28;20464;-72
2022/10/31 09:16:46;;;;;;;54.85;24.98;;;11.00;99.90;;;;;;5073442;28;20041;-71
2022/10/31 09:19:12;;;;;;;60.08;26.08;;;11.00;99.90;;;;;;5057181;28;20189;-69
2022/10/31 09:21:38;;;;;;;57.42;25.98;;;11.10;99.90;;;;;;5075069;28;20041;-70
2022/10/31 09:24:04;;;;;;;60.33;27.02;;;11.20;99.90;;;;;;5074717;28;20502;-69
2022/10/31 09:26:30;;;;;;;55.05;25.98;;;11.20;99.90;;;;;;5077894;28;20067;-73
2022/10/31 09:28:57;;;;;;;57.80;27.25;;;11.30;99.90;;;;;;5075889;28;20063;-69
2022/10/31 09:31:23;;;;;;;53.53;25.20;;;11.50;99.90;;;;;;5076763;28;20044;-72
2022/10/31 09:33:48;;;;;;;53.90;26.23;;;11.60;99.90;;;;;;5074293;28;20096;-70
2022/10/31 09:36:14;;;;;;;53.38;26.60;;;11.70;99.90;;;;;;5074755;28;20651;-69
2022/10/31 09:38:40;;;;;;;55.45;25.80;;;11.90;99.90;;;;;;5076360;28;20110;-70
2022/10/31 09:41:33;;;;;;;56.45;26.33;;;12.00;99.90;;;;;;5076932;28;20043;-71
2022/10/31 09:44:18;;;;;;;51.85;25.80;;;12.10;99.90;;;;;;5077277;28;20055;-71
2022/10/31 09:47:17;;;;;;;50.40;24.98;;;12.20;99.90;;;;;;5076314;28;20072;-70
2022/10/31 09:50:15;;;;;;;53.72;25.17;;;12.30;99.90;;;;;;5074652;28;20048;-72
2022/10/31 09:52:48;;;;;;;52.90;24.95;;;12.30;99.90;;;;;;5040858;28;20078;-71
2022/10/31 09:55:36;;;;;;;52.10;25.20;;;12.30;99.90;;;;;;5075764;28;20048;-71
2022/10/31 09:58:02;;;;;;;46.60;23.15;;;12.40;99.90;;;;;;5074072;28;20106;-71
2022/10/31 10:00:28;;;;;;;49.10;24.48;;;12.50;99.90;;;;;;5074985;28;20167;-72
2022/10/31 10:03:39;;;;;;;50.53;23.55;;;12.60;99.90;;;;;;5074303;28;20127;-73
2022/10/31 10:06:14;;;;;;;47.65;22.80;;;12.80;99.90;;;;;;5078258;28;20044;-70
2022/10/31 10:08:41;;;;;;;45.33;23.42;;;13.00;99.90;;;;;;5079289;28;20048;-71
2022/10/31 10:11:32;;;;;;;;;;;13.10;99.90;;;;;;5077882;28;20041;-71
2022/10/31 10:14:01;;;;;;;47.38;24.42;;;13.20;99.90;;;;;;5076887;28;19920;-70
2022/10/31 10:16:37;;;;;;;45.60;23.63;;;13.30;99.90;;;;;;5077170;28;20154;-70
2022/10/31 10:19:17;;;;;;;43.20;24.38;;;13.40;99.90;;;;;;5076315;28;20040;-71
2022/10/31 10:21:59;;;;;;;46.47;24.00;;;13.50;99.90;;;;;;5056305;28;20211;-71
2022/10/31 10:24:43;;;;;;;41.75;22.88;;;13.60;99.90;;;;;;5073727;28;20048;-70
2022/10/31 10:27:37;;;;;;;42.70;21.45;;;13.70;99.90;;;;;;5056055;28;20131;-70
2022/10/31 10:30:06;;;;;;;38.92;20.58;;;13.70;99.90;;;;;;5055579;28;20052;-70
2022/10/31 10:32:57;;;;;;;36.17;19.58;;;13.80;99.90;;;;;;5055537;28;20040;-70
2022/10/31 10:35:55;;;;;;;38.15;18.90;;;13.90;99.90;;;;;;5071911;28;20177;-70
2022/10/31 10:38:28;;;;;;;32.47;17.20;;;13.90;99.90;;;;;;5059865;28;20079;-72
2022/10/31 10:40:54;;;;;;;36.25;18.45;;;14.00;99.90;;;;;;5056001;28;20425;-71
2022/10/31 10:43:28;;;;;;;38.65;19.15;;;13.90;99.90;;;;;;5072142;28;20107;-70
2022/10/31 10:49:26;;;;;;;31.30;16.17;;;14.00;99.90;;;;;;5071897;28;20056;-71
2022/10/31 10:52:10;;;;;;;35.00;17.35;;;14.10;99.90;;;;;;5054861;28;20402;-71
2022/10/31 10:54:56;;;;;;;32.05;16.88;;;14.10;99.90;;;;;;5072510;28;20058;-71
2022/10/31 10:57:46;;;;;;;33.83;17.33;;;14.10;99.90;;;;;;5074782;28;20139;-70
2022/10/31 11:00:21;;;;;;;36.28;17.33;;;14.10;99.90;;;;;;5074508;28;20052;-71
2022/10/31 11:02:47;;;;;;;35.58;18.33;;;14.20;99.90;;;;;;5058609;28;20036;-71
2022/10/31 11:05:23;;;;;;;34.50;18.13;;;14.30;99.90;;;;;;5075161;28;20102;-71
2022/10/31 11:07:54;;;;;;;34.88;17.73;;;14.30;99.90;;;;;;5074121;28;20463;-71
2022/10/31 11:10:20;;;;;;;32.10;17.27;;;14.40;99.90;;;;;;5072455;28;20048;-71
2022/10/31 11:13:12;;;;;;;30.85;16.40;;;14.40;99.90;;;;;;5057233;28;20418;-76
2022/10/31 11:15:51;;;;;;;28.90;16.08;;;14.50;99.90;;;;;;5075862;28;20040;-72
2022/10/31 11:18:27;;;;;;;30.10;16.63;;;14.50;99.90;;;;;;5072037;28;20045;-71
2022/10/31 11:20:55;;;;;;;30.83;16.75;;;14.60;99.90;;;;;;5072813;28;20527;-71
2022/10/31 11:23:23;;;;;;;27.80;15.63;;;;;;;;;;5071048;28;20132;-71
2022/10/31 11:25:59;;;;;;;32.30;15.98;;;14.80;99.90;;;;;;5070028;28;20473;-76
2022/10/31 11:28:26;;;;;;;26.98;14.25;;;14.80;99.90;;;;;;5054831;28;20051;-72
2022/10/31 11:30:56;;;;;;;;;;;14.80;99.90;;;;;;5071050;28;20120;-71
2022/10/31 11:33:31;;;;;;;26.05;14.10;;;14.90;99.90;;;;;;5071154;28;19936;-71
2022/10/31 11:35:57;;;;;;;26.67;12.77;;;14.90;99.90;;;;;;5054601;28;20059;-71
2022/10/31 11:38:30;;;;;;;24.23;12.68;;;15.00;99.90;;;;;;5070020;28;20460;-73
2022/10/31 11:41:10;;;;;;;25.25;11.65;;;15.10;99.90;;;;;;5071939;28;20052;-72
2022/10/31 11:43:36;;;;;;;25.40;10.85;;;15.20;99.90;;;;;;5055504;28;20053;-71
2022/10/31 11:46:11;;;;;;;22.75;9.65;;;15.40;99.90;;;;;;5072461;28;20406;-73
2022/10/31 11:48:38;;;;;;;27.65;10.88;;;15.50;99.90;;;;;;5070848;28;20052;-71
2022/10/31 11:51:04;;;;;;;22.42;9.82;;;15.40;99.90;;;;;;5054817;28;20051;-71
2022/10/31 11:53:36;;;;;;;18.52;9.63;;;15.50;99.90;;;;;;5056778;28;20381;-73
2022/10/31 11:56:10;;;;;;;19.17;10.18;;;15.50;99.90;;;;;;5056424;28;20044;-71
2022/10/31 11:58:36;;;;;;;21.30;9.68;;;15.50;99.90;;;;;;5071208;28;20051;-73
2022/10/31 12:01:01;;;;;;;25.20;9.48;;;15.60;99.90;;;;;;5054951;28;20135;-72
2022/10/31 12:03:36;;;;;;;20.83;10.02;;;15.60;99.90;;;;;;5070827;28;20197;-71
2022/10/31 12:06:07;;;;;;;21.45;9.32;;;15.60;99.90;;;;;;5071118;28;20124;-72
2022/10/31 12:08:38;;;;;;;17.52;9.05;;;15.60;99.90;;;;;;5071057;28;20127;-73
2022/10/31 12:11:19;;;;;;;19.45;9.10;;;15.60;99.90;;;;;;5072145;28;20448;-71
2022/10/31 12:13:56;;;;;;;20.88;9.48;;;15.60;99.90;;;;;;5072804;28;20054;-72
2022/10/31 12:16:28;;;;;;;24.98;9.55;;;15.60;99.90;;;;;;5054734;28;20048;-72
2022/10/31 12:19:20;;;;;;;24.73;9.13;;;15.50;99.90;;;;;;5072516;28;20044;-76
2022/10/31 12:22:09;;;;;;;24.48;8.80;;;15.60;99.90;;;;;;5072406;28;20049;-72
2022/10/31 12:24:43;;;;;;;20.67;9.02;;;15.60;99.90;;;;;;5055066;28;20052;-72
2022/10/31 12:27:31;;;;;;;17.88;9.50;;;15.60;99.90;;;;;;5071142;28;20045;-73
2022/10/31 12:30:18;;;;;;;18.98;8.35;;;15.60;99.90;;;;;;5070939;28;20045;-77
2022/10/31 12:33:02;;;;;;;21.73;8.98;;;15.70;99.90;;;;;;5071543;28;20159;-72
2022/10/31 12:35:52;;;;;;;22.17;8.55;;;15.70;99.90;;;;;;5072154;28;20056;-72
2022/10/31 12:38:42;;;;;;;19.40;8.75;;;15.70;99.90;;;;;;5055584;28;20483;-71
2022/10/31 12:41:11;;;;;;;18.60;8.10;;;15.80;99.90;;;;;;5071173;28;20044;-70
2022/10/31 12:44:05;;;;;;;16.77;8.10;;;15.80;99.90;;;;;;5075483;28;20089;-71
2022/10/31 12:46:53;;;;;;;17.77;7.65;;;15.80;99.90;;;;;;5059214;28;20060;-72
2022/10/31 12:49:27;;;;;;;16.65;7.38;;;15.80;99.90;;;;;;5074404;28;20490;-72
2022/10/31 12:52:07;;;;;;;20.75;7.95;;;15.90;99.90;;;;;;5075734;28;20544;-74
2022/10/31 12:54:55;;;;;;;18.42;7.70;;;16.00;99.90;;;;;;5073866;28;20052;-71